sensor_id;sensor_type;location;lat;lon;timestamp;P1;durP1;ratioP1;P2;durP2;ratioP2
47749;SDS011;49810;48.160;10.812;2023-05-20T00:01:53;19.77;;;13.10;;
47749;SDS011;49810;48.160;10.812;2023-05-20T00:04:21;22.40;;;13.52;;
47749;SDS011;49810;48.160;10.812;2023-05-20T00:06:49;83.60;;;47.38;;
47749;SDS011;49810;48.160;10.812;2023-05-20T00:09:17;51.35;;;32.05;;
47749;SDS011;49810;48.160;10.812;2023-05-20T00:11:45;19.70;;;13.45;;
47749;SDS011;49810;48.160;10.812;2023-05-20T00:14:13;13.05;;;9.80;;
47749;SDS011;49810;48.160;10.812;2023-05-20T00:16:42;12.23;;;8.32;;
47749;SDS011;49810;48.160;10.812;2023-05-20T00:19:10;14.05;;;8.40;;
47749;SDS011;49810;48.160;10.812;2023-05-20T00:21:38;11.35;;;8.45;;
47749;SDS011;49810;48.160;10.812;2023-05-20T00:24:06;9.57;;;7.60;;
47749;SDS011;49810;48.160;10.812;2023-05-20T00:26:34;9.48;;;7.65;;
47749;SDS011;49810;48.160;10.812;2023-05-20T00:29:02;11.20;;;7.32;;
47749;SDS011;49810;48.160;10.812;2023-05-20T00:31:30;10.50;;;7.10;;
47749;SDS011;49810;48.160;10.812;2023-05-20T00:33:59;10.43;;;7.43;;
47749;SDS011;49810;48.160;10.812;2023-05-20T00:36:27;8.85;;;7.05;;
47749;SDS011;49810;48.160;10.812;2023-05-20T00:38:55;11.80;;;7.28;;
47749;SDS011;49810;48.160;10.812;2023-05-20T00:41:23;12.02;;;8.05;;
47749;SDS011;49810;48.160;10.812;2023-05-20T00:43:52;9.32;;;7.15;;
47749;SDS011;49810;48.160;10.812;2023-05-20T00:46:20;12.07;;;7.28;;
47749;SDS011;49810;48.160;10.812;2023-05-20T00:48:48;10.45;;;7.45;;
47749;SDS011;49810;48.160;10.812;2023-05-20T00:51:17;10.68;;;7.47;;
47749;SDS011;49810;48.160;10.812;2023-05-20T00:53:46;14.65;;;7.50;;
47749;SDS011;49810;48.160;10.812;2023-05-20T00:56:14;14.32;;;9.70;;
47749;SDS011;49810;48.160;10.812;2023-05-20T00:58:42;11.20;;;7.68;;
47749;SDS011;49810;48.160;10.812;2023-05-20T01:01:10;10.55;;;7.72;;
47749;SDS011;49810;48.160;10.812;2023-05-20T01:03:39;11.70;;;7.65;;
47749;SDS011;49810;48.160;10.812;2023-05-20T01:06:07;10.60;;;7.55;;
47749;SDS011;49810;48.160;10.812;2023-05-20T01:08:36;12.65;;;7.95;;
47749;SDS011;49810;48.160;10.812;2023-05-20T01:11:05;11.40;;;7.53;;
47749;SDS011;49810;48.160;10.812;2023-05-20T01:13:36;12.40;;;8.40;;
47749;SDS011;49810;48.160;10.812;2023-05-20T01:16:05;11.93;;;7.90;;
47749;SDS011;49810;48.160;10.812;2023-05-20T01:18:34;10.18;;;7.45;;
47749;SDS011;49810;48.160;10.812;2023-05-20T01:21:03;9.60;;;7.38;;
47749;SDS011;49810;48.160;10.812;2023-05-20T01:23:36;13.02;;;7.95;;
47749;SDS011;49810;48.160;10.812;2023-05-20T01:26:07;11.18;;;7.55;;
47749;SDS011;49810;48.160;10.812;2023-05-20T01:28:35;11.07;;;7.50;;
47749;SDS011;49810;48.160;10.812;2023-05-20T01:31:04;10.68;;;7.20;;
47749;SDS011;49810;48.160;10.812;2023-05-20T01:33:33;10.93;;;7.38;;
47749;SDS011;49810;48.160;10.812;2023-05-20T01:36:02;8.68;;;7.30;;
47749;SDS011;49810;48.160;10.812;2023-05-20T01:38:31;9.98;;;7.07;;
47749;SDS011;49810;48.160;10.812;2023-05-20T01:41:00;11.27;;;7.35;;
47749;SDS011;49810;48.160;10.812;2023-05-20T01:43:31;12.88;;;7.68;;
47749;SDS011;49810;48.160;10.812;2023-05-20T01:45:59;11.15;;;7.85;;
47749;SDS011;49810;48.160;10.812;2023-05-20T01:48:28;12.02;;;8.15;;
47749;SDS011;49810;48.160;10.812;2023-05-20T01:50:56;12.10;;;8.18;;
47749;SDS011;49810;48.160;10.812;2023-05-20T01:53:24;11.68;;;7.78;;
47749;SDS011;49810;48.160;10.812;2023-05-20T01:55:52;11.75;;;8.25;;
47749;SDS011;49810;48.160;10.812;2023-05-20T01:58:22;11.45;;;7.85;;
47749;SDS011;49810;48.160;10.812;2023-05-20T02:00:49;10.75;;;8.02;;
47749;SDS011;49810;48.160;10.812;2023-05-20T02:03:17;11.52;;;7.95;;
47749;SDS011;49810;48.160;10.812;2023-05-20T02:05:45;10.82;;;7.93;;
47749;SDS011;49810;48.160;10.812;2023-05-20T02:08:13;14.10;;;7.72;;
47749;SDS011;49810;48.160;10.812;2023-05-20T02:10:41;11.10;;;7.93;;
47749;SDS011;49810;48.160;10.812;2023-05-20T02:13:11;12.38;;;8.50;;
47749;SDS011;49810;48.160;10.812;2023-05-20T02:15:41;12.05;;;8.40;;
47749;SDS011;49810;48.160;10.812;2023-05-20T02:18:09;10.98;;;8.52;;
47749;SDS011;49810;48.160;10.812;2023-05-20T02:20:38;12.75;;;8.82;;
47749;SDS011;49810;48.160;10.812;2023-05-20T02:23:06;12.57;;;8.55;;
47749;SDS011;49810;48.160;10.812;2023-05-20T02:25:35;12.15;;;9.18;;
47749;SDS011;49810;48.160;10.812;2023-05-20T02:28:03;11.25;;;8.73;;
47749;SDS011;49810;48.160;10.812;2023-05-20T02:30:36;13.27;;;9.65;;
47749;SDS011;49810;48.160;10.812;2023-05-20T02:33:05;12.90;;;10.30;;
47749;SDS011;49810;48.160;10.812;2023-05-20T02:35:35;14.70;;;9.85;;
47749;SDS011;49810;48.160;10.812;2023-05-20T02:38:03;11.65;;;8.65;;
47749;SDS011;49810;48.160;10.812;2023-05-20T02:40:31;11.05;;;9.15;;
47749;SDS011;49810;48.160;10.812;2023-05-20T02:42:59;13.93;;;9.43;;
47749;SDS011;49810;48.160;10.812;2023-05-20T02:45:27;14.32;;;8.90;;
47749;SDS011;49810;48.160;10.812;2023-05-20T02:47:55;12.38;;;9.15;;
47749;SDS011;49810;48.160;10.812;2023-05-20T02:50:24;9.95;;;8.88;;
47749;SDS011;49810;48.160;10.812;2023-05-20T02:52:52;11.65;;;8.77;;
47749;SDS011;49810;48.160;10.812;2023-05-20T02:55:20;10.82;;;8.95;;
47749;SDS011;49810;48.160;10.812;2023-05-20T02:57:49;10.95;;;8.57;;
47749;SDS011;49810;48.160;10.812;2023-05-20T03:00:17;12.10;;;8.73;;
47749;SDS011;49810;48.160;10.812;2023-05-20T03:02:45;13.10;;;9.27;;
47749;SDS011;49810;48.160;10.812;2023-05-20T03:05:13;11.95;;;8.23;;
47749;SDS011;49810;48.160;10.812;2023-05-20T03:07:42;11.60;;;8.30;;
47749;SDS011;49810;48.160;10.812;2023-05-20T03:10:11;11.40;;;8.70;;
47749;SDS011;49810;48.160;10.812;2023-05-20T03:12:39;13.32;;;9.02;;
47749;SDS011;49810;48.160;10.812;2023-05-20T03:15:08;10.23;;;8.20;;
47749;SDS011;49810;48.160;10.812;2023-05-20T03:17:36;11.90;;;9.02;;
47749;SDS011;49810;48.160;10.812;2023-05-20T03:20:05;11.07;;;8.50;;
47749;SDS011;49810;48.160;10.812;2023-05-20T03:22:33;13.30;;;9.75;;
47749;SDS011;49810;48.160;10.812;2023-05-20T03:25:03;15.75;;;9.52;;
47749;SDS011;49810;48.160;10.812;2023-05-20T03:27:31;13.90;;;9.02;;
47749;SDS011;49810;48.160;10.812;2023-05-20T03:30:00;12.90;;;10.18;;
47749;SDS011;49810;48.160;10.812;2023-05-20T03:32:31;12.38;;;9.45;;
47749;SDS011;49810;48.160;10.812;2023-05-20T03:34:59;12.63;;;9.27;;
47749;SDS011;49810;48.160;10.812;2023-05-20T03:37:26;13.23;;;10.00;;
47749;SDS011;49810;48.160;10.812;2023-05-20T03:39:54;15.18;;;10.05;;
47749;SDS011;49810;48.160;10.812;2023-05-20T03:42:24;12.50;;;9.93;;
47749;SDS011;49810;48.160;10.812;2023-05-20T03:44:52;14.23;;;10.57;;
47749;SDS011;49810;48.160;10.812;2023-05-20T03:47:20;14.40;;;10.98;;
47749;SDS011;49810;48.160;10.812;2023-05-20T03:49:48;14.65;;;10.30;;
47749;SDS011;49810;48.160;10.812;2023-05-20T03:52:16;16.35;;;11.43;;
47749;SDS011;49810;48.160;10.812;2023-05-20T03:54:44;13.57;;;10.38;;
47749;SDS011;49810;48.160;10.812;2023-05-20T03:57:12;17.92;;;11.38;;
47749;SDS011;49810;48.160;10.812;2023-05-20T03:59:42;13.93;;;10.45;;
47749;SDS011;49810;48.160;10.812;2023-05-20T04:02:09;14.98;;;11.13;;
47749;SDS011;49810;48.160;10.812;2023-05-20T04:04:38;15.18;;;10.63;;
47749;SDS011;49810;48.160;10.812;2023-05-20T04:07:08;16.27;;;11.23;;
47749;SDS011;49810;48.160;10.812;2023-05-20T04:09:36;16.20;;;12.02;;
47749;SDS011;49810;48.160;10.812;2023-05-20T04:12:04;18.52;;;13.02;;
47749;SDS011;49810;48.160;10.812;2023-05-20T04:14:32;18.83;;;13.40;;
47749;SDS011;49810;48.160;10.812;2023-05-20T04:17:02;23.17;;;15.60;;
47749;SDS011;49810;48.160;10.812;2023-05-20T04:19:31;19.30;;;13.75;;
47749;SDS011;49810;48.160;10.812;2023-05-20T04:22:00;19.08;;;14.05;;
47749;SDS011;49810;48.160;10.812;2023-05-20T04:24:28;18.00;;;13.30;;
47749;SDS011;49810;48.160;10.812;2023-05-20T04:26:56;25.48;;;15.18;;
47749;SDS011;49810;48.160;10.812;2023-05-20T04:29:26;23.58;;;14.90;;
47749;SDS011;49810;48.160;10.812;2023-05-20T04:31:55;18.75;;;13.48;;
47749;SDS011;49810;48.160;10.812;2023-05-20T04:34:25;19.42;;;13.45;;
47749;SDS011;49810;48.160;10.812;2023-05-20T04:36:55;23.85;;;14.73;;
47749;SDS011;49810;48.160;10.812;2023-05-20T04:39:25;22.23;;;14.90;;
47749;SDS011;49810;48.160;10.812;2023-05-20T04:41:53;22.08;;;14.73;;
47749;SDS011;49810;48.160;10.812;2023-05-20T04:44:21;21.58;;;14.80;;
47749;SDS011;49810;48.160;10.812;2023-05-20T04:46:50;23.05;;;16.23;;
47749;SDS011;49810;48.160;10.812;2023-05-20T04:49:18;25.15;;;15.85;;
47749;SDS011;49810;48.160;10.812;2023-05-20T04:51:48;22.33;;;15.25;;
47749;SDS011;49810;48.160;10.812;2023-05-20T04:54:17;23.38;;;16.35;;
47749;SDS011;49810;48.160;10.812;2023-05-20T04:56:46;21.92;;;15.63;;
47749;SDS011;49810;48.160;10.812;2023-05-20T04:59:14;23.95;;;15.15;;
47749;SDS011;49810;48.160;10.812;2023-05-20T05:01:42;21.30;;;15.70;;
47749;SDS011;49810;48.160;10.812;2023-05-20T05:04:10;23.33;;;16.23;;
47749;SDS011;49810;48.160;10.812;2023-05-20T05:06:38;31.77;;;17.38;;
47749;SDS011;49810;48.160;10.812;2023-05-20T05:09:07;27.20;;;17.48;;
47749;SDS011;49810;48.160;10.812;2023-05-20T05:11:38;27.30;;;17.30;;
47749;SDS011;49810;48.160;10.812;2023-05-20T05:14:06;32.97;;;18.88;;
47749;SDS011;49810;48.160;10.812;2023-05-20T05:16:34;28.00;;;17.33;;
47749;SDS011;49810;48.160;10.812;2023-05-20T05:19:02;30.23;;;18.35;;
47749;SDS011;49810;48.160;10.812;2023-05-20T05:21:34;29.92;;;20.13;;
47749;SDS011;49810;48.160;10.812;2023-05-20T05:24:02;30.75;;;18.90;;
47749;SDS011;49810;48.160;10.812;2023-05-20T05:26:32;28.50;;;19.73;;
47749;SDS011;49810;48.160;10.812;2023-05-20T05:29:00;33.67;;;19.40;;
47749;SDS011;49810;48.160;10.812;2023-05-20T05:31:28;33.67;;;19.65;;
47749;SDS011;49810;48.160;10.812;2023-05-20T05:33:56;29.77;;;20.50;;
47749;SDS011;49810;48.160;10.812;2023-05-20T05:36:24;33.10;;;21.00;;
47749;SDS011;49810;48.160;10.812;2023-05-20T05:38:52;34.78;;;22.83;;
47749;SDS011;49810;48.160;10.812;2023-05-20T05:41:21;39.03;;;22.98;;
47749;SDS011;49810;48.160;10.812;2023-05-20T05:43:52;34.85;;;21.92;;
47749;SDS011;49810;48.160;10.812;2023-05-20T05:46:21;29.73;;;19.42;;
47749;SDS011;49810;48.160;10.812;2023-05-20T05:48:50;39.15;;;23.00;;
47749;SDS011;49810;48.160;10.812;2023-05-20T05:51:17;34.63;;;22.75;;
47749;SDS011;49810;48.160;10.812;2023-05-20T05:53:48;31.17;;;21.27;;
47749;SDS011;49810;48.160;10.812;2023-05-20T05:56:17;34.38;;;21.63;;
47749;SDS011;49810;48.160;10.812;2023-05-20T05:58:45;33.55;;;22.13;;
47749;SDS011;49810;48.160;10.812;2023-05-20T06:01:16;31.70;;;21.38;;
47749;SDS011;49810;48.160;10.812;2023-05-20T06:03:44;40.85;;;20.80;;
47749;SDS011;49810;48.160;10.812;2023-05-20T06:06:13;36.65;;;21.05;;
47749;SDS011;49810;48.160;10.812;2023-05-20T06:08:41;33.97;;;21.48;;
47749;SDS011;49810;48.160;10.812;2023-05-20T06:11:10;35.90;;;21.08;;
47749;SDS011;49810;48.160;10.812;2023-05-20T06:13:38;39.92;;;20.50;;
47749;SDS011;49810;48.160;10.812;2023-05-20T06:16:06;33.70;;;19.63;;
47749;SDS011;49810;48.160;10.812;2023-05-20T06:18:36;27.63;;;18.45;;
47749;SDS011;49810;48.160;10.812;2023-05-20T06:21:07;26.48;;;18.40;;
47749;SDS011;49810;48.160;10.812;2023-05-20T06:23:35;28.73;;;18.58;;
47749;SDS011;49810;48.160;10.812;2023-05-20T06:26:07;27.40;;;18.10;;
47749;SDS011;49810;48.160;10.812;2023-05-20T06:28:35;27.80;;;18.85;;
47749;SDS011;49810;48.160;10.812;2023-05-20T06:31:03;24.15;;;17.25;;
47749;SDS011;49810;48.160;10.812;2023-05-20T06:33:33;26.48;;;18.67;;
47749;SDS011;49810;48.160;10.812;2023-05-20T06:36:08;27.27;;;16.77;;
47749;SDS011;49810;48.160;10.812;2023-05-20T06:38:36;24.55;;;17.30;;
47749;SDS011;49810;48.160;10.812;2023-05-20T06:41:05;23.13;;;17.40;;
47749;SDS011;49810;48.160;10.812;2023-05-20T06:43:33;24.73;;;15.98;;
47749;SDS011;49810;48.160;10.812;2023-05-20T06:46:21;25.17;;;15.93;;
47749;SDS011;49810;48.160;10.812;2023-05-20T06:48:59;22.90;;;15.43;;
47749;SDS011;49810;48.160;10.812;2023-05-20T06:51:29;27.23;;;15.93;;
47749;SDS011;49810;48.160;10.812;2023-05-20T06:54:00;24.67;;;16.65;;
47749;SDS011;49810;48.160;10.812;2023-05-20T06:56:29;22.70;;;15.90;;
47749;SDS011;49810;48.160;10.812;2023-05-20T06:58:58;29.88;;;17.13;;
47749;SDS011;49810;48.160;10.812;2023-05-20T07:01:26;22.75;;;16.55;;
47749;SDS011;49810;48.160;10.812;2023-05-20T07:03:55;26.85;;;17.45;;
47749;SDS011;49810;48.160;10.812;2023-05-20T07:06:24;25.60;;;18.20;;
47749;SDS011;49810;48.160;10.812;2023-05-20T07:08:54;23.67;;;17.13;;
47749;SDS011;49810;48.160;10.812;2023-05-20T07:11:23;21.48;;;15.45;;
47749;SDS011;49810;48.160;10.812;2023-05-20T07:13:53;21.75;;;15.60;;
47749;SDS011;49810;48.160;10.812;2023-05-20T07:16:23;24.50;;;16.77;;
47749;SDS011;49810;48.160;10.812;2023-05-20T07:18:54;22.40;;;15.93;;
47749;SDS011;49810;48.160;10.812;2023-05-20T07:21:22;21.88;;;15.85;;
47749;SDS011;49810;48.160;10.812;2023-05-20T07:24:12;22.80;;;16.88;;
47749;SDS011;49810;48.160;10.812;2023-05-20T07:26:41;23.02;;;17.45;;
47749;SDS011;49810;48.160;10.812;2023-05-20T07:29:09;23.33;;;16.48;;
47749;SDS011;49810;48.160;10.812;2023-05-20T07:31:38;23.40;;;15.98;;
47749;SDS011;49810;48.160;10.812;2023-05-20T07:34:06;20.65;;;15.20;;
47749;SDS011;49810;48.160;10.812;2023-05-20T07:36:35;22.33;;;15.85;;
47749;SDS011;49810;48.160;10.812;2023-05-20T07:39:05;34.47;;;27.13;;
47749;SDS011;49810;48.160;10.812;2023-05-20T07:41:44;23.17;;;17.27;;
47749;SDS011;49810;48.160;10.812;2023-05-20T07:44:13;24.85;;;17.35;;
47749;SDS011;49810;48.160;10.812;2023-05-20T07:46:47;19.15;;;15.13;;
47749;SDS011;49810;48.160;10.812;2023-05-20T07:49:18;22.35;;;15.75;;
47749;SDS011;49810;48.160;10.812;2023-05-20T07:51:48;21.45;;;15.57;;
47749;SDS011;49810;48.160;10.812;2023-05-20T07:54:16;20.23;;;15.07;;
47749;SDS011;49810;48.160;10.812;2023-05-20T07:56:49;22.33;;;15.75;;
47749;SDS011;49810;48.160;10.812;2023-05-20T07:59:17;22.30;;;16.48;;
47749;SDS011;49810;48.160;10.812;2023-05-20T08:01:47;20.45;;;14.68;;
47749;SDS011;49810;48.160;10.812;2023-05-20T08:04:17;20.38;;;14.10;;
47749;SDS011;49810;48.160;10.812;2023-05-20T08:06:45;18.67;;;13.98;;
47749;SDS011;49810;48.160;10.812;2023-05-20T08:09:20;21.55;;;14.57;;
47749;SDS011;49810;48.160;10.812;2023-05-20T08:11:53;24.55;;;16.10;;
47749;SDS011;49810;48.160;10.812;2023-05-20T08:14:22;20.70;;;14.43;;
47749;SDS011;49810;48.160;10.812;2023-05-20T08:16:51;18.98;;;14.27;;
47749;SDS011;49810;48.160;10.812;2023-05-20T08:19:21;22.95;;;15.32;;
47749;SDS011;49810;48.160;10.812;2023-05-20T08:21:49;21.25;;;15.63;;
47749;SDS011;49810;48.160;10.812;2023-05-20T08:24:18;19.23;;;14.40;;
47749;SDS011;49810;48.160;10.812;2023-05-20T08:26:47;18.65;;;14.07;;
47749;SDS011;49810;48.160;10.812;2023-05-20T08:29:18;22.27;;;15.45;;
47749;SDS011;49810;48.160;10.812;2023-05-20T08:31:48;21.90;;;15.68;;
47749;SDS011;49810;48.160;10.812;2023-05-20T08:34:18;20.85;;;14.65;;
47749;SDS011;49810;48.160;10.812;2023-05-20T08:36:46;20.48;;;15.05;;
47749;SDS011;49810;48.160;10.812;2023-05-20T08:39:14;20.95;;;14.25;;
47749;SDS011;49810;48.160;10.812;2023-05-20T08:41:44;19.45;;;14.73;;
47749;SDS011;49810;48.160;10.812;2023-05-20T08:44:13;20.60;;;14.07;;
47749;SDS011;49810;48.160;10.812;2023-05-20T08:46:42;18.95;;;12.63;;
47749;SDS011;49810;48.160;10.812;2023-05-20T08:49:10;20.33;;;14.05;;
47749;SDS011;49810;48.160;10.812;2023-05-20T08:51:39;18.63;;;14.07;;
47749;SDS011;49810;48.160;10.812;2023-05-20T08:54:08;19.30;;;13.80;;
47749;SDS011;49810;48.160;10.812;2023-05-20T08:56:38;19.42;;;14.52;;
47749;SDS011;49810;48.160;10.812;2023-05-20T08:59:08;17.67;;;13.48;;
47749;SDS011;49810;48.160;10.812;2023-05-20T09:01:39;18.08;;;12.52;;
47749;SDS011;49810;48.160;10.812;2023-05-20T09:04:10;18.00;;;13.50;;
47749;SDS011;49810;48.160;10.812;2023-05-20T09:06:41;20.33;;;14.35;;
47749;SDS011;49810;48.160;10.812;2023-05-20T09:09:09;17.45;;;13.45;;
47749;SDS011;49810;48.160;10.812;2023-05-20T09:11:37;19.50;;;14.18;;
47749;SDS011;49810;48.160;10.812;2023-05-20T09:14:07;17.05;;;14.50;;
47749;SDS011;49810;48.160;10.812;2023-05-20T09:16:35;17.38;;;14.55;;
47749;SDS011;49810;48.160;10.812;2023-05-20T09:19:06;20.23;;;14.95;;
47749;SDS011;49810;48.160;10.812;2023-05-20T09:21:37;18.48;;;13.30;;
47749;SDS011;49810;48.160;10.812;2023-05-20T09:24:08;20.85;;;13.30;;
47749;SDS011;49810;48.160;10.812;2023-05-20T09:26:36;16.10;;;12.63;;
47749;SDS011;49810;48.160;10.812;2023-05-20T09:29:05;18.52;;;12.82;;
47749;SDS011;49810;48.160;10.812;2023-05-20T09:31:34;14.65;;;11.73;;
47749;SDS011;49810;48.160;10.812;2023-05-20T09:34:04;17.77;;;13.13;;
47749;SDS011;49810;48.160;10.812;2023-05-20T09:36:33;18.67;;;12.98;;
47749;SDS011;49810;48.160;10.812;2023-05-20T09:39:03;16.85;;;13.23;;
47749;SDS011;49810;48.160;10.812;2023-05-20T09:41:32;18.33;;;14.05;;
47749;SDS011;49810;48.160;10.812;2023-05-20T09:44:00;19.52;;;13.32;;
47749;SDS011;49810;48.160;10.812;2023-05-20T09:46:30;17.13;;;13.73;;
47749;SDS011;49810;48.160;10.812;2023-05-20T09:48:58;18.60;;;13.68;;
47749;SDS011;49810;48.160;10.812;2023-05-20T09:51:26;16.70;;;13.13;;
47749;SDS011;49810;48.160;10.812;2023-05-20T09:53:55;17.90;;;13.38;;
47749;SDS011;49810;48.160;10.812;2023-05-20T09:56:24;15.43;;;12.68;;
47749;SDS011;49810;48.160;10.812;2023-05-20T09:58:53;14.65;;;12.15;;
47749;SDS011;49810;48.160;10.812;2023-05-20T10:01:24;17.35;;;13.93;;
47749;SDS011;49810;48.160;10.812;2023-05-20T10:03:53;13.82;;;11.65;;
47749;SDS011;49810;48.160;10.812;2023-05-20T10:09:14;14.70;;;12.75;;
47749;SDS011;49810;48.160;10.812;2023-05-20T10:11:47;16.17;;;12.30;;
47749;SDS011;49810;48.160;10.812;2023-05-20T10:14:25;14.95;;;12.35;;
47749;SDS011;49810;48.160;10.812;2023-05-20T10:17:00;14.63;;;11.90;;
47749;SDS011;49810;48.160;10.812;2023-05-20T10:19:33;14.40;;;11.52;;
47749;SDS011;49810;48.160;10.812;2023-05-20T10:22:01;13.52;;;11.77;;
47749;SDS011;49810;48.160;10.812;2023-05-20T10:24:30;19.58;;;11.57;;
47749;SDS011;49810;48.160;10.812;2023-05-20T10:27:01;12.02;;;10.60;;
47749;SDS011;49810;48.160;10.812;2023-05-20T10:29:40;12.52;;;11.23;;
47749;SDS011;49810;48.160;10.812;2023-05-20T10:32:09;12.63;;;10.73;;
47749;SDS011;49810;48.160;10.812;2023-05-20T10:34:44;16.33;;;11.75;;
47749;SDS011;49810;48.160;10.812;2023-05-20T10:37:20;13.75;;;11.20;;
47749;SDS011;49810;48.160;10.812;2023-05-20T10:39:50;14.32;;;11.35;;
47749;SDS011;49810;48.160;10.812;2023-05-20T10:42:27;14.75;;;11.48;;
47749;SDS011;49810;48.160;10.812;2023-05-20T10:44:56;25.63;;;18.88;;
47749;SDS011;49810;48.160;10.812;2023-05-20T10:47:24;14.13;;;11.02;;
47749;SDS011;49810;48.160;10.812;2023-05-20T10:49:52;14.80;;;11.38;;
47749;SDS011;49810;48.160;10.812;2023-05-20T10:52:21;14.77;;;10.95;;
47749;SDS011;49810;48.160;10.812;2023-05-20T10:54:53;11.52;;;8.85;;
47749;SDS011;49810;48.160;10.812;2023-05-20T10:57:22;10.68;;;8.20;;
47749;SDS011;49810;48.160;10.812;2023-05-20T10:59:51;11.65;;;8.30;;
47749;SDS011;49810;48.160;10.812;2023-05-20T11:02:22;8.85;;;7.63;;
47749;SDS011;49810;48.160;10.812;2023-05-20T11:04:54;11.02;;;8.73;;
47749;SDS011;49810;48.160;10.812;2023-05-20T11:07:23;10.50;;;7.85;;
47749;SDS011;49810;48.160;10.812;2023-05-20T11:09:52;13.13;;;8.65;;
47749;SDS011;49810;48.160;10.812;2023-05-20T11:12:20;10.98;;;8.70;;
47749;SDS011;49810;48.160;10.812;2023-05-20T11:14:48;9.18;;;8.23;;
47749;SDS011;49810;48.160;10.812;2023-05-20T11:17:18;14.88;;;10.10;;
47749;SDS011;49810;48.160;10.812;2023-05-20T11:19:47;11.85;;;9.80;;
47749;SDS011;49810;48.160;10.812;2023-05-20T11:22:15;12.45;;;9.18;;
47749;SDS011;49810;48.160;10.812;2023-05-20T11:24:43;11.90;;;8.38;;
47749;SDS011;49810;48.160;10.812;2023-05-20T11:27:10;9.82;;;8.10;;
47749;SDS011;49810;48.160;10.812;2023-05-20T11:29:39;10.35;;;8.52;;
47749;SDS011;49810;48.160;10.812;2023-05-20T11:32:07;13.75;;;9.48;;
47749;SDS011;49810;48.160;10.812;2023-05-20T11:34:36;11.20;;;8.82;;
47749;SDS011;49810;48.160;10.812;2023-05-20T11:37:05;12.95;;;9.07;;
47749;SDS011;49810;48.160;10.812;2023-05-20T11:39:34;11.75;;;8.88;;
47749;SDS011;49810;48.160;10.812;2023-05-20T11:42:02;10.23;;;7.95;;
47749;SDS011;49810;48.160;10.812;2023-05-20T11:44:32;11.35;;;9.23;;
47749;SDS011;49810;48.160;10.812;2023-05-20T11:47:01;10.60;;;8.52;;
47749;SDS011;49810;48.160;10.812;2023-05-20T11:49:29;10.32;;;8.68;;
47749;SDS011;49810;48.160;10.812;2023-05-20T11:51:59;8.85;;;7.40;;
47749;SDS011;49810;48.160;10.812;2023-05-20T11:54:29;8.93;;;6.95;;
47749;SDS011;49810;48.160;10.812;2023-05-20T11:57:03;8.65;;;6.38;;
47749;SDS011;49810;48.160;10.812;2023-05-20T11:59:32;9.07;;;6.95;;
47749;SDS011;49810;48.160;10.812;2023-05-20T12:02:01;9.23;;;6.32;;
47749;SDS011;49810;48.160;10.812;2023-05-20T12:04:29;11.90;;;6.60;;
47749;SDS011;49810;48.160;10.812;2023-05-20T12:06:58;8.48;;;6.10;;
47749;SDS011;49810;48.160;10.812;2023-05-20T12:09:26;8.77;;;6.30;;
47749;SDS011;49810;48.160;10.812;2023-05-20T12:11:54;8.35;;;5.80;;
47749;SDS011;49810;48.160;10.812;2023-05-20T12:14:22;7.95;;;6.35;;
47749;SDS011;49810;48.160;10.812;2023-05-20T12:16:50;10.07;;;6.75;;
47749;SDS011;49810;48.160;10.812;2023-05-20T12:19:19;11.98;;;6.30;;
47749;SDS011;49810;48.160;10.812;2023-05-20T12:21:48;8.23;;;6.43;;
47749;SDS011;49810;48.160;10.812;2023-05-20T12:24:19;9.50;;;5.97;;
47749;SDS011;49810;48.160;10.812;2023-05-20T12:26:47;7.43;;;5.78;;
47749;SDS011;49810;48.160;10.812;2023-05-20T12:29:15;7.22;;;5.07;;
47749;SDS011;49810;48.160;10.812;2023-05-20T12:31:43;8.38;;;5.90;;
47749;SDS011;49810;48.160;10.812;2023-05-20T12:34:11;6.93;;;5.70;;
47749;SDS011;49810;48.160;10.812;2023-05-20T12:36:39;8.70;;;5.70;;
47749;SDS011;49810;48.160;10.812;2023-05-20T12:39:07;6.75;;;4.78;;
47749;SDS011;49810;48.160;10.812;2023-05-20T12:41:38;6.93;;;4.25;;
47749;SDS011;49810;48.160;10.812;2023-05-20T12:44:06;7.90;;;3.90;;
47749;SDS011;49810;48.160;10.812;2023-05-20T12:46:34;5.68;;;4.47;;
47749;SDS011;49810;48.160;10.812;2023-05-20T12:49:02;6.18;;;4.55;;
47749;SDS011;49810;48.160;10.812;2023-05-20T12:51:30;7.90;;;4.18;;
47749;SDS011;49810;48.160;10.812;2023-05-20T12:53:58;7.00;;;4.18;;
47749;SDS011;49810;48.160;10.812;2023-05-20T12:56:26;6.93;;;4.20;;
47749;SDS011;49810;48.160;10.812;2023-05-20T12:58:55;5.60;;;3.53;;
47749;SDS011;49810;48.160;10.812;2023-05-20T13:01:23;5.60;;;3.70;;
47749;SDS011;49810;48.160;10.812;2023-05-20T13:03:51;6.38;;;3.88;;
47749;SDS011;49810;48.160;10.812;2023-05-20T13:06:21;5.82;;;4.40;;
47749;SDS011;49810;48.160;10.812;2023-05-20T13:08:48;5.10;;;4.10;;
47749;SDS011;49810;48.160;10.812;2023-05-20T13:11:19;5.63;;;4.30;;
47749;SDS011;49810;48.160;10.812;2023-05-20T13:13:47;6.55;;;3.65;;
47749;SDS011;49810;48.160;10.812;2023-05-20T13:16:18;6.68;;;3.90;;
47749;SDS011;49810;48.160;10.812;2023-05-20T13:18:46;6.28;;;3.97;;
47749;SDS011;49810;48.160;10.812;2023-05-20T13:21:14;4.75;;;3.75;;
47749;SDS011;49810;48.160;10.812;2023-05-20T13:23:42;5.10;;;3.75;;
47749;SDS011;49810;48.160;10.812;2023-05-20T13:26:10;4.55;;;3.70;;
47749;SDS011;49810;48.160;10.812;2023-05-20T13:28:38;7.88;;;3.97;;
47749;SDS011;49810;48.160;10.812;2023-05-20T13:31:07;5.40;;;3.83;;
47749;SDS011;49810;48.160;10.812;2023-05-20T13:33:40;4.95;;;3.72;;
47749;SDS011;49810;48.160;10.812;2023-05-20T13:36:08;4.72;;;3.47;;
47749;SDS011;49810;48.160;10.812;2023-05-20T13:38:36;7.97;;;3.85;;
47749;SDS011;49810;48.160;10.812;2023-05-20T13:41:04;5.57;;;3.70;;
47749;SDS011;49810;48.160;10.812;2023-05-20T13:43:32;5.28;;;3.45;;
47749;SDS011;49810;48.160;10.812;2023-05-20T13:46:00;4.10;;;3.20;;
47749;SDS011;49810;48.160;10.812;2023-05-20T13:48:29;5.95;;;3.30;;
47749;SDS011;49810;48.160;10.812;2023-05-20T13:51:00;4.18;;;2.97;;
47749;SDS011;49810;48.160;10.812;2023-05-20T13:53:28;3.92;;;3.40;;
47749;SDS011;49810;48.160;10.812;2023-05-20T13:55:56;5.57;;;3.85;;
47749;SDS011;49810;48.160;10.812;2023-05-20T13:58:24;5.40;;;3.95;;
47749;SDS011;49810;48.160;10.812;2023-05-20T14:00:54;8.13;;;3.92;;
47749;SDS011;49810;48.160;10.812;2023-05-20T14:03:23;8.10;;;4.13;;
47749;SDS011;49810;48.160;10.812;2023-05-20T14:05:51;6.78;;;4.72;;
47749;SDS011;49810;48.160;10.812;2023-05-20T14:08:21;6.63;;;4.03;;
47749;SDS011;49810;48.160;10.812;2023-05-20T14:10:49;5.75;;;4.50;;
47749;SDS011;49810;48.160;10.812;2023-05-20T14:13:20;7.68;;;5.30;;
47749;SDS011;49810;48.160;10.812;2023-05-20T14:15:48;7.07;;;5.20;;
47749;SDS011;49810;48.160;10.812;2023-05-20T14:18:17;6.05;;;4.70;;
47749;SDS011;49810;48.160;10.812;2023-05-20T14:20:45;9.85;;;5.65;;
47749;SDS011;49810;48.160;10.812;2023-05-20T14:23:13;7.95;;;5.28;;
47749;SDS011;49810;48.160;10.812;2023-05-20T14:25:44;9.45;;;5.40;;
47749;SDS011;49810;48.160;10.812;2023-05-20T14:28:12;6.18;;;4.90;;
47749;SDS011;49810;48.160;10.812;2023-05-20T14:30:40;6.88;;;4.95;;
47749;SDS011;49810;48.160;10.812;2023-05-20T14:33:08;9.02;;;5.20;;